sensor_id;sensor_type;location;lat;lon;timestamp;temperature;humidity
11818;DHT22;5966;52.402;5.322;2022-08-04T00:00:39;22.40;99.90
11818;DHT22;5966;52.402;5.322;2022-08-04T00:03:12;22.40;99.90
11818;DHT22;5966;52.402;5.322;2022-08-04T00:05:53;22.40;99.90
11818;DHT22;5966;52.402;5.322;2022-08-04T00:08:37;22.40;99.90
11818;DHT22;5966;52.402;5.322;2022-08-04T00:11:10;22.40;99.90
11818;DHT22;5966;52.402;5.322;2022-08-04T00:13:48;22.40;99.90
11818;DHT22;5966;52.402;5.322;2022-08-04T00:16:31;22.30;99.90
11818;DHT22;5966;52.402;5.322;2022-08-04T00:19:09;22.30;99.90
11818;DHT22;5966;52.402;5.322;2022-08-04T00:21:44;22.30;99.90
11818;DHT22;5966;52.402;5.322;2022-08-04T00:24:15;22.30;99.90
11818;DHT22;5966;52.402;5.322;2022-08-04T00:26:45;22.20;99.90
11818;DHT22;5966;52.402;5.322;2022-08-04T00:29:14;22.20;99.90
11818;DHT22;5966;52.402;5.322;2022-08-04T00:31:47;22.20;99.90
11818;DHT22;5966;52.402;5.322;2022-08-04T00:34:24;22.20;99.90
11818;DHT22;5966;52.402;5.322;2022-08-04T00:36:54;22.20;99.90
11818;DHT22;5966;52.402;5.322;2022-08-04T00:39:24;22.20;99.90
11818;DHT22;5966;52.402;5.322;2022-08-04T00:42:13;22.10;99.90
11818;DHT22;5966;52.402;5.322;2022-08-04T00:44:51;22.10;99.90
11818;DHT22;5966;52.402;5.322;2022-08-04T00:47:37;22.10;99.90
11818;DHT22;5966;52.402;5.322;2022-08-04T00:50:11;22.00;99.90
11818;DHT22;5966;52.402;5.322;2022-08-04T00:52:53;22.00;99.90
11818;DHT22;5966;52.402;5.322;2022-08-04T00:55:49;22.00;99.90
11818;DHT22;5966;52.402;5.322;2022-08-04T00:58:28;22.00;99.90
11818;DHT22;5966;52.402;5.322;2022-08-04T01:01:03;22.00;99.90
11818;DHT22;5966;52.402;5.322;2022-08-04T01:03:49;22.00;99.90
11818;DHT22;5966;52.402;5.322;2022-08-04T01:06:27;22.00;99.90
11818;DHT22;5966;52.402;5.322;2022-08-04T01:09:04;22.00;99.90
11818;DHT22;5966;52.402;5.322;2022-08-04T01:12:07;22.00;99.90
11818;DHT22;5966;52.402;5.322;2022-08-04T01:17:47;21.90;99.90
11818;DHT22;5966;52.402;5.322;2022-08-04T01:20:24;21.90;99.90
11818;DHT22;5966;52.402;5.322;2022-08-04T01:29:30;21.90;99.90
11818;DHT22;5966;52.402;5.322;2022-08-04T01:32:18;21.90;99.90
11818;DHT22;5966;52.402;5.322;2022-08-04T01:34:57;21.80;99.90
11818;DHT22;5966;52.402;5.322;2022-08-04T01:37:47;21.80;99.90
11818;DHT22;5966;52.402;5.322;2022-08-04T01:40:18;21.80;99.90
11818;DHT22;5966;52.402;5.322;2022-08-04T01:42:51;21.70;99.90
11818;DHT22;5966;52.402;5.322;2022-08-04T01:45:23;21.70;99.90
11818;DHT22;5966;52.402;5.322;2022-08-04T01:47:53;21.70;99.90
11818;DHT22;5966;52.402;5.322;2022-08-04T01:50:23;21.70;99.90
11818;DHT22;5966;52.402;5.322;2022-08-04T01:52:55;21.70;99.90
11818;DHT22;5966;52.402;5.322;2022-08-04T01:55:27;21.70;99.90
11818;DHT22;5966;52.402;5.322;2022-08-04T01:58:18;21.70;99.90
11818;DHT22;5966;52.402;5.322;2022-08-04T02:03:31;21.60;99.90
11818;DHT22;5966;52.402;5.322;2022-08-04T02:06:28;21.60;99.90
11818;DHT22;5966;52.402;5.322;2022-08-04T02:09:08;21.60;99.90
11818;DHT22;5966;52.402;5.322;2022-08-04T02:11:48;21.60;99.90
11818;DHT22;5966;52.402;5.322;2022-08-04T02:14:24;21.50;99.90
11818;DHT22;5966;52.402;5.322;2022-08-04T02:17:13;21.50;99.90
11818;DHT22;5966;52.402;5.322;2022-08-04T02:20:03;21.50;99.90
11818;DHT22;5966;52.402;5.322;2022-08-04T02:22:33;21.40;99.90
11818;DHT22;5966;52.402;5.322;2022-08-04T02:25:07;21.40;99.90
11818;DHT22;5966;52.402;5.322;2022-08-04T02:27:55;21.40;99.90
11818;DHT22;5966;52.402;5.322;2022-08-04T02:30:32;21.40;99.90
11818;DHT22;5966;52.402;5.322;2022-08-04T02:33:05;21.40;99.90
11818;DHT22;5966;52.402;5.322;2022-08-04T02:35:38;21.40;99.90
11818;DHT22;5966;52.402;5.322;2022-08-04T02:38:19;21.30;99.90
11818;DHT22;5966;52.402;5.322;2022-08-04T02:40:53;21.30;99.90
11818;DHT22;5966;52.402;5.322;2022-08-04T02:43:28;21.30;99.90
11818;DHT22;5966;52.402;5.322;2022-08-04T02:48:57;21.30;99.90
11818;DHT22;5966;52.402;5.322;2022-08-04T02:51:34;21.30;99.90
11818;DHT22;5966;52.402;5.322;2022-08-04T02:54:06;21.20;99.90
11818;DHT22;5966;52.402;5.322;2022-08-04T02:56:38;21.20;99.90
11818;DHT22;5966;52.402;5.322;2022-08-04T02:59:10;21.10;99.90
11818;DHT22;5966;52.402;5.322;2022-08-04T03:01:44;21.10;99.90
11818;DHT22;5966;52.402;5.322;2022-08-04T03:04:39;21.20;99.90
11818;DHT22;5966;52.402;5.322;2022-08-04T03:07:45;21.20;99.90
11818;DHT22;5966;52.402;5.322;2022-08-04T03:17:26;21.30;99.90
11818;DHT22;5966;52.402;5.322;2022-08-04T03:20:27;21.30;99.90
11818;DHT22;5966;52.402;5.322;2022-08-04T03:23:41;21.30;99.90
11818;DHT22;5966;52.402;5.322;2022-08-04T03:29:52;21.30;99.90
11818;DHT22;5966;52.402;5.322;2022-08-04T03:38:17;21.30;99.90
11818;DHT22;5966;52.402;5.322;2022-08-04T03:41:11;21.30;99.90
11818;DHT22;5966;52.402;5.322;2022-08-04T03:47:37;21.30;99.90
11818;DHT22;5966;52.402;5.322;2022-08-04T03:54:38;21.30;99.90
11818;DHT22;5966;52.402;5.322;2022-08-04T04:00:28;21.20;99.90
11818;DHT22;5966;52.402;5.322;2022-08-04T04:03:22;21.20;99.90
11818;DHT22;5966;52.402;5.322;2022-08-04T04:06:38;21.20;99.90
11818;DHT22;5966;52.402;5.322;2022-08-04T04:13:13;21.10;99.90
11818;DHT22;5966;52.402;5.322;2022-08-04T04:16:04;21.20;99.90
11818;DHT22;5966;52.402;5.322;2022-08-04T04:21:28;21.20;99.90
11818;DHT22;5966;52.402;5.322;2022-08-04T04:27:13;21.30;99.90
11818;DHT22;5966;52.402;5.322;2022-08-04T04:30:01;21.30;99.90
11818;DHT22;5966;52.402;5.322;2022-08-04T04:33:11;21.30;99.90
11818;DHT22;5966;52.402;5.322;2022-08-04T04:35:58;21.30;99.90
11818;DHT22;5966;52.402;5.322;2022-08-04T04:39:01;21.30;99.90
11818;DHT22;5966;52.402;5.322;2022-08-04T04:42:12;21.30;99.90
11818;DHT22;5966;52.402;5.322;2022-08-04T04:45:02;21.40;99.90
11818;DHT22;5966;52.402;5.322;2022-08-04T04:47:55;21.40;99.90
11818;DHT22;5966;52.402;5.322;2022-08-04T04:50:52;21.50;99.90
11818;DHT22;5966;52.402;5.322;2022-08-04T04:53:37;21.50;99.90
11818;DHT22;5966;52.402;5.322;2022-08-04T04:56:29;21.50;99.90
11818;DHT22;5966;52.402;5.322;2022-08-04T04:59:22;21.50;99.90
11818;DHT22;5966;52.402;5.322;2022-08-04T05:08:47;21.60;99.90
11818;DHT22;5966;52.402;5.322;2022-08-04T05:15:06;21.80;99.90
11818;DHT22;5966;52.402;5.322;2022-08-04T05:17:52;21.80;99.90
11818;DHT22;5966;52.402;5.322;2022-08-04T05:20:43;21.80;99.90
11818;DHT22;5966;52.402;5.322;2022-08-04T05:23:18;21.80;99.90
11818;DHT22;5966;52.402;5.322;2022-08-04T05:25:52;21.80;99.90
11818;DHT22;5966;52.402;5.322;2022-08-04T05:28:28;21.90;99.90
11818;DHT22;5966;52.402;5.322;2022-08-04T05:31:03;22.00;99.90
11818;DHT22;5966;52.402;5.322;2022-08-04T05:33:36;22.00;99.90
11818;DHT22;5966;52.402;5.322;2022-08-04T05:36:12;22.10;99.90
11818;DHT22;5966;52.402;5.322;2022-08-04T05:38:54;22.10;99.90
11818;DHT22;5966;52.402;5.322;2022-08-04T05:41:28;22.20;99.90
11818;DHT22;5966;52.402;5.322;2022-08-04T05:44:12;22.20;99.90
11818;DHT22;5966;52.402;5.322;2022-08-04T05:46:42;22.30;99.90
11818;DHT22;5966;52.402;5.322;2022-08-04T05:49:20;22.30;99.90
11818;DHT22;5966;52.402;5.322;2022-08-04T05:51:48;22.40;99.90
11818;DHT22;5966;52.402;5.322;2022-08-04T05:54:17;22.40;99.90
11818;DHT22;5966;52.402;5.322;2022-08-04T05:56:50;22.40;99.90
11818;DHT22;5966;52.402;5.322;2022-08-04T05:59:21;22.50;99.90
11818;DHT22;5966;52.402;5.322;2022-08-04T06:01:53;22.50;99.90
11818;DHT22;5966;52.402;5.322;2022-08-04T06:04:27;22.50;99.90
11818;DHT22;5966;52.402;5.322;2022-08-04T06:06:57;22.50;99.90
11818;DHT22;5966;52.402;5.322;2022-08-04T06:09:25;22.60;99.90
11818;DHT22;5966;52.402;5.322;2022-08-04T06:11:55;22.60;99.90
11818;DHT22;5966;52.402;5.322;2022-08-04T06:14:34;22.60;99.90
11818;DHT22;5966;52.402;5.322;2022-08-04T06:17:06;22.70;99.90
11818;DHT22;5966;52.402;5.322;2022-08-04T06:19:54;22.70;99.90
11818;DHT22;5966;52.402;5.322;2022-08-04T06:22:45;22.80;99.90
11818;DHT22;5966;52.402;5.322;2022-08-04T06:25:18;22.80;99.90
11818;DHT22;5966;52.402;5.322;2022-08-04T06:27:48;22.80;99.90
11818;DHT22;5966;52.402;5.322;2022-08-04T06:30:17;22.80;99.90
11818;DHT22;5966;52.402;5.322;2022-08-04T06:32:47;22.80;99.90
11818;DHT22;5966;52.402;5.322;2022-08-04T06:35:31;22.80;99.90
11818;DHT22;5966;52.402;5.322;2022-08-04T06:37:59;22.80;99.90
11818;DHT22;5966;52.402;5.322;2022-08-04T06:40:29;22.80;99.90
11818;DHT22;5966;52.402;5.322;2022-08-04T06:43:02;22.80;99.90
11818;DHT22;5966;52.402;5.322;2022-08-04T06:45:33;22.80;99.90
11818;DHT22;5966;52.402;5.322;2022-08-04T06:48:04;22.90;99.90
11818;DHT22;5966;52.402;5.322;2022-08-04T06:50:34;22.80;99.90
11818;DHT22;5966;52.402;5.322;2022-08-04T06:53:23;22.80;99.90
11818;DHT22;5966;52.402;5.322;2022-08-04T06:55:52;22.80;99.90
11818;DHT22;5966;52.402;5.322;2022-08-04T06:58:23;22.80;99.90
11818;DHT22;5966;52.402;5.322;2022-08-04T07:00:52;22.80;99.90
11818;DHT22;5966;52.402;5.322;2022-08-04T07:03:21;22.80;99.90
11818;DHT22;5966;52.402;5.322;2022-08-04T07:05:50;22.80;99.90
11818;DHT22;5966;52.402;5.322;2022-08-04T07:08:19;22.80;99.90
11818;DHT22;5966;52.402;5.322;2022-08-04T07:10:48;22.70;99.90
11818;DHT22;5966;52.402;5.322;2022-08-04T07:13:17;22.70;99.90
11818;DHT22;5966;52.402;5.322;2022-08-04T07:15:47;22.70;99.90
11818;DHT22;5966;52.402;5.322;2022-08-04T07:18:16;22.70;99.90
11818;DHT22;5966;52.402;5.322;2022-08-04T07:20:45;22.70;99.90
11818;DHT22;5966;52.402;5.322;2022-08-04T07:23:14;22.70;99.90
11818;DHT22;5966;52.402;5.322;2022-08-04T07:25:49;22.70;99.90
11818;DHT22;5966;52.402;5.322;2022-08-04T07:28:39;22.70;99.90
11818;DHT22;5966;52.402;5.322;2022-08-04T07:31:13;22.70;99.90
11818;DHT22;5966;52.402;5.322;2022-08-04T07:34:00;22.70;99.90
11818;DHT22;5966;52.402;5.322;2022-08-04T07:36:46;22.70;99.90
11818;DHT22;5966;52.402;5.322;2022-08-04T07:39:17;22.70;99.90
11818;DHT22;5966;52.402;5.322;2022-08-04T07:41:56;22.70;99.90
11818;DHT22;5966;52.402;5.322;2022-08-04T07:44:25;22.70;99.90
11818;DHT22;5966;52.402;5.322;2022-08-04T07:46:54;22.70;99.90
11818;DHT22;5966;52.402;5.322;2022-08-04T07:49:22;22.70;99.90
11818;DHT22;5966;52.402;5.322;2022-08-04T07:52:12;22.70;99.90
11818;DHT22;5966;52.402;5.322;2022-08-04T07:54:42;22.80;99.90
11818;DHT22;5966;52.402;5.322;2022-08-04T07:57:10;22.80;99.90
11818;DHT22;5966;52.402;5.322;2022-08-04T07:59:58;22.80;99.90
11818;DHT22;5966;52.402;5.322;2022-08-04T08:02:28;22.90;99.90
11818;DHT22;5966;52.402;5.322;2022-08-04T08:04:57;23.00;99.90
11818;DHT22;5966;52.402;5.322;2022-08-04T08:07:25;23.00;99.90
11818;DHT22;5966;52.402;5.322;2022-08-04T08:09:54;23.00;99.90
11818;DHT22;5966;52.402;5.322;2022-08-04T08:12:25;23.10;99.90
11818;DHT22;5966;52.402;5.322;2022-08-04T08:15:17;23.10;99.90
11818;DHT22;5966;52.402;5.322;2022-08-04T08:17:48;23.20;99.90
11818;DHT22;5966;52.402;5.322;2022-08-04T08:20:27;23.20;99.90
11818;DHT22;5966;52.402;5.322;2022-08-04T08:22:58;23.30;99.90
11818;DHT22;5966;52.402;5.322;2022-08-04T08:25:31;23.30;99.90
11818;DHT22;5966;52.402;5.322;2022-08-04T08:28:02;23.40;99.90
11818;DHT22;5966;52.402;5.322;2022-08-04T08:30:31;23.50;99.90
11818;DHT22;5966;52.402;5.322;2022-08-04T08:33:04;23.60;99.90
11818;DHT22;5966;52.402;5.322;2022-08-04T08:35:44;23.60;99.90
11818;DHT22;5966;52.402;5.322;2022-08-04T08:38:27;23.70;99.90
11818;DHT22;5966;52.402;5.322;2022-08-04T08:41:19;23.70;99.90
11818;DHT22;5966;52.402;5.322;2022-08-04T08:44:03;23.80;99.90
11818;DHT22;5966;52.402;5.322;2022-08-04T08:47:08;23.80;99.90
11818;DHT22;5966;52.402;5.322;2022-08-04T08:52:29;23.90;99.90
11818;DHT22;5966;52.402;5.322;2022-08-04T08:55:28;23.90;99.90
11818;DHT22;5966;52.402;5.322;2022-08-04T08:58:27;24.00;99.90
11818;DHT22;5966;52.402;5.322;2022-08-04T09:01:15;24.10;99.90
11818;DHT22;5966;52.402;5.322;2022-08-04T09:04:01;24.10;99.90
11818;DHT22;5966;52.402;5.322;2022-08-04T09:07:09;24.20;99.90
11818;DHT22;5966;52.402;5.322;2022-08-04T09:10:08;24.30;99.90
11818;DHT22;5966;52.402;5.322;2022-08-04T09:12:49;24.40;99.90
11818;DHT22;5966;52.402;5.322;2022-08-04T09:15:23;24.40;99.90
11818;DHT22;5966;52.402;5.322;2022-08-04T09:17:58;24.50;99.90
11818;DHT22;5966;52.402;5.322;2022-08-04T09:20:30;24.60;99.90
11818;DHT22;5966;52.402;5.322;2022-08-04T09:23:05;24.60;99.90
11818;DHT22;5966;52.402;5.322;2022-08-04T09:25:41;24.50;99.90
11818;DHT22;5966;52.402;5.322;2022-08-04T09:28:22;24.50;99.90
11818;DHT22;5966;52.402;5.322;2022-08-04T09:31:12;24.50;99.90
11818;DHT22;5966;52.402;5.322;2022-08-04T09:33:48;24.60;99.90
11818;DHT22;5966;52.402;5.322;2022-08-04T09:36:28;24.70;99.90
11818;DHT22;5966;52.402;5.322;2022-08-04T09:39:07;24.70;99.90
11818;DHT22;5966;52.402;5.322;2022-08-04T09:44:25;24.80;99.90
11818;DHT22;5966;52.402;5.322;2022-08-04T09:47:24;24.90;99.90
11818;DHT22;5966;52.402;5.322;2022-08-04T09:50:15;24.90;99.90
11818;DHT22;5966;52.402;5.322;2022-08-04T09:52:57;25.00;99.90
11818;DHT22;5966;52.402;5.322;2022-08-04T09:55:46;25.00;99.90
11818;DHT22;5966;52.402;5.322;2022-08-04T09:58:29;25.10;99.90
11818;DHT22;5966;52.402;5.322;2022-08-04T10:01:09;25.20;99.90
11818;DHT22;5966;52.402;5.322;2022-08-04T10:03:43;25.10;99.90
11818;DHT22;5966;52.402;5.322;2022-08-04T10:06:31;25.10;99.90
11818;DHT22;5966;52.402;5.322;2022-08-04T10:09:11;25.00;99.90
11818;DHT22;5966;52.402;5.322;2022-08-04T10:12:07;25.00;99.90
11818;DHT22;5966;52.402;5.322;2022-08-04T10:14:50;25.00;99.90
11818;DHT22;5966;52.402;5.322;2022-08-04T10:20:35;25.00;99.90
11818;DHT22;5966;52.402;5.322;2022-08-04T10:23:19;25.00;99.90
11818;DHT22;5966;52.402;5.322;2022-08-04T10:26:10;25.00;99.90
11818;DHT22;5966;52.402;5.322;2022-08-04T10:28:48;25.00;99.90
11818;DHT22;5966;52.402;5.322;2022-08-04T10:31:23;24.90;99.90
11818;DHT22;5966;52.402;5.322;2022-08-04T10:33:59;24.90;99.90
11818;DHT22;5966;52.402;5.322;2022-08-04T10:36:34;24.80;99.90
11818;DHT22;5966;52.402;5.322;2022-08-04T10:39:12;24.80;99.90
11818;DHT22;5966;52.402;5.322;2022-08-04T10:42:09;24.80;99.90
11818;DHT22;5966;52.402;5.322;2022-08-04T10:44:50;24.80;99.90
11818;DHT22;5966;52.402;5.322;2022-08-04T10:47:29;24.80;99.90
11818;DHT22;5966;52.402;5.322;2022-08-04T10:50:02;24.80;99.90
11818;DHT22;5966;52.402;5.322;2022-08-04T10:52:34;24.80;99.90
11818;DHT22;5966;52.402;5.322;2022-08-04T10:55:10;24.80;99.90
11818;DHT22;5966;52.402;5.322;2022-08-04T10:57:47;24.80;99.90
11818;DHT22;5966;52.402;5.322;2022-08-04T11:00:23;24.80;99.90
11818;DHT22;5966;52.402;5.322;2022-08-04T11:03:00;24.70;99.90
11818;DHT22;5966;52.402;5.322;2022-08-04T11:05:39;24.80;99.90
11818;DHT22;5966;52.402;5.322;2022-08-04T11:08:13;24.80;99.90
11818;DHT22;5966;52.402;5.322;2022-08-04T11:10:53;24.80;99.90
11818;DHT22;5966;52.402;5.322;2022-08-04T11:13:23;24.80;99.90
11818;DHT22;5966;52.402;5.322;2022-08-04T11:15:58;24.80;99.90
11818;DHT22;5966;52.402;5.322;2022-08-04T11:18:34;24.80;99.90
11818;DHT22;5966;52.402;5.322;2022-08-04T11:21:11;24.70;99.90
11818;DHT22;5966;52.402;5.322;2022-08-04T11:23:46;24.70;99.90
11818;DHT22;5966;52.402;5.322;2022-08-04T11:26:26;24.80;99.90
11818;DHT22;5966;52.402;5.322;2022-08-04T11:29:00;24.80;99.90
11818;DHT22;5966;52.402;5.322;2022-08-04T11:31:35;24.80;99.90
11818;DHT22;5966;52.402;5.322;2022-08-04T11:34:17;24.80;99.90
11818;DHT22;5966;52.402;5.322;2022-08-04T11:36:53;24.80;99.90
11818;DHT22;5966;52.402;5.322;2022-08-04T11:39:27;24.90;99.90
11818;DHT22;5966;52.402;5.322;2022-08-04T11:42:05;25.00;99.90
11818;DHT22;5966;52.402;5.322;2022-08-04T11:44:40;25.10;99.90
11818;DHT22;5966;52.402;5.322;2022-08-04T11:47:17;25.10;99.90
11818;DHT22;5966;52.402;5.322;2022-08-04T11:49:53;25.10;99.90
11818;DHT22;5966;52.402;5.322;2022-08-04T11:52:26;25.10;99.90
11818;DHT22;5966;52.402;5.322;2022-08-04T11:54:55;25.10;99.90
11818;DHT22;5966;52.402;5.322;2022-08-04T11:57:24;25.20;99.90
11818;DHT22;5966;52.402;5.322;2022-08-04T12:00:06;25.20;99.90
11818;DHT22;5966;52.402;5.322;2022-08-04T12:03:04;25.20;99.90
11818;DHT22;5966;52.402;5.322;2022-08-04T12:05:40;25.20;99.90
11818;DHT22;5966;52.402;5.322;2022-08-04T12:08:25;25.20;99.90
11818;DHT22;5966;52.402;5.322;2022-08-04T12:11:12;25.30;99.90
11818;DHT22;5966;52.402;5.322;2022-08-04T12:13:49;25.20;99.90
11818;DHT22;5966;52.402;5.322;2022-08-04T12:16:31;25.30;99.90
11818;DHT22;5966;52.402;5.322;2022-08-04T12:19:12;25.30;99.90
11818;DHT22;5966;52.402;5.322;2022-08-04T12:21:51;25.30;99.90
11818;DHT22;5966;52.402;5.322;2022-08-04T12:24:28;25.40;99.90
11818;DHT22;5966;52.402;5.322;2022-08-04T12:27:06;25.40;99.90
11818;DHT22;5966;52.402;5.322;2022-08-04T12:29:50;25.40;99.90
11818;DHT22;5966;52.402;5.322;2022-08-04T12:32:53;25.50;99.90
11818;DHT22;5966;52.402;5.322;2022-08-04T12:35:30;25.50;99.90
11818;DHT22;5966;52.402;5.322;2022-08-04T12:38:04;25.40;99.90
11818;DHT22;5966;52.402;5.322;2022-08-04T12:40:39;25.50;99.90
11818;DHT22;5966;52.402;5.322;2022-08-04T12:43:14;25.50;99.90
11818;DHT22;5966;52.402;5.322;2022-08-04T12:45:49;25.50;99.90
11818;DHT22;5966;52.402;5.322;2022-08-04T12:48:21;25.50;99.90
11818;DHT22;5966;52.402;5.322;2022-08-04T12:51:01;25.50;99.90
11818;DHT22;5966;52.402;5.322;2022-08-04T12:53:54;25.40;99.90
11818;DHT22;5966;52.402;5.322;2022-08-04T12:56:26;25.20;99.90
11818;DHT22;5966;52.402;5.322;2022-08-04T12:59:05;25.30;99.90
11818;DHT22;5966;52.402;5.322;2022-08-04T13:01:39;25.40;99.90
11818;DHT22;5966;52.402;5.322;2022-08-04T13:04:34;25.40;99.90
11818;DHT22;5966;52.402;5.322;2022-08-04T13:07:11;25.50;99.90
11818;DHT22;5966;52.402;5.322;2022-08-04T13:09:53;25.60;99.90
11818;DHT22;5966;52.402;5.322;2022-08-04T13:12:26;25.60;99.90
11818;DHT22;5966;52.402;5.322;2022-08-04T13:15:16;25.60;99.90
11818;DHT22;5966;52.402;5.322;2022-08-04T13:17:56;25.50;99.90
11818;DHT22;5966;52.402;5.322;2022-08-04T13:20:44;25.60;99.90
11818;DHT22;5966;52.402;5.322;2022-08-04T13:23:14;25.60;99.90
11818;DHT22;5966;52.402;5.322;2022-08-04T13:25:50;25.80;99.90
11818;DHT22;5966;52.402;5.322;2022-08-04T13:28:42;25.80;99.90
11818;DHT22;5966;52.402;5.322;2022-08-04T13:31:13;25.80;99.90
11818;DHT22;5966;52.402;5.322;2022-08-04T13:33:44;25.90;99.90
11818;DHT22;5966;52.402;5.322;2022-08-04T13:36:29;25.90;99.90
11818;DHT22;5966;52.402;5.322;2022-08-04T13:39:13;26.00;99.90
11818;DHT22;5966;52.402;5.322;2022-08-04T13:41:51;25.90;99.90
11818;DHT22;5966;52.402;5.322;2022-08-04T13:44:29;25.70;99.90
11818;DHT22;5966;52.402;5.322;2022-08-04T13:47:05;25.70;99.90
11818;DHT22;5966;52.402;5.322;2022-08-04T13:49:41;25.60;99.90
11818;DHT22;5966;52.402;5.322;2022-08-04T13:52:31;25.60;99.90
11818;DHT22;5966;52.402;5.322;2022-08-04T13:55:03;25.70;99.90
11818;DHT22;5966;52.402;5.322;2022-08-04T13:57:43;25.70;99.90
11818;DHT22;5966;52.402;5.322;2022-08-04T14:00:15;25.70;99.90
11818;DHT22;5966;52.402;5.322;2022-08-04T14:03:02;25.70;99.90
11818;DHT22;5966;52.402;5.322;2022-08-04T14:06:07;25.60;99.90
11818;DHT22;5966;52.402;5.322;2022-08-04T14:08:47;25.60;99.90
11818;DHT22;5966;52.402;5.322;2022-08-04T14:11:19;25.50;99.90
11818;DHT22;5966;52.402;5.322;2022-08-04T14:14:17;25.50;99.90
11818;DHT22;5966;52.402;5.322;2022-08-04T14:17:14;25.50;99.90
11818;DHT22;5966;52.402;5.322;2022-08-04T14:19:48;25.60;99.90
11818;DHT22;5966;52.402;5.322;2022-08-04T14:22:49;25.60;99.90
11818;DHT22;5966;52.402;5.322;2022-08-04T14:25:20;25.70;99.90
11818;DHT22;5966;52.402;5.322;2022-08-04T14:27:59;25.80;99.90
11818;DHT22;5966;52.402;5.322;2022-08-04T14:30:36;25.80;99.90
11818;DHT22;5966;52.402;5.322;2022-08-04T14:33:08;25.80;99.90
11818;DHT22;5966;52.402;5.322;2022-08-04T14:36:02;25.80;99.90
11818;DHT22;5966;52.402;5.322;2022-08-04T14:38:51;25.70;99.90
11818;DHT22;5966;52.402;5.322;2022-08-04T14:41:42;25.70;99.90
11818;DHT22;5966;52.402;5.322;2022-08-04T14:44:20;25.70;99.90
11818;DHT22;5966;52.402;5.322;2022-08-04T14:46:57;25.70;99.90
11818;DHT22;5966;52.402;5.322;2022-08-04T14:49:27;25.70;99.90
11818;DHT22;5966;52.402;5.322;2022-08-04T14:52:03;25.60;99.90
11818;DHT22;5966;52.402;5.322;2022-08-04T14:54:43;25.60;99.90
11818;DHT22;5966;52.402;5.322;2022-08-04T14:57:15;25.50;99.90
11818;DHT22;5966;52.402;5.322;2022-08-04T14:59:48;25.60;99.90
11818;DHT22;5966;52.402;5.322;2022-08-04T15:02:26;25.80;99.90
11818;DHT22;5966;52.402;5.322;2022-08-04T15:05:04;26.00;99.90
11818;DHT22;5966;52.402;5.322;2022-08-04T15:07:54;26.00;99.90
11818;DHT22;5966;52.402;5.322;2022-08-04T15:10:23;25.80;99.90
11818;DHT22;5966;52.402;5.322;2022-08-04T15:12:52;25.80;99.90
11818;DHT22;5966;52.402;5.322;2022-08-04T15:15:23;25.80;99.90
11818;DHT22;5966;52.402;5.322;2022-08-04T15:18:05;25.80;99.90
11818;DHT22;5966;52.402;5.322;2022-08-04T15:20:36;25.70;99.90
11818;DHT22;5966;52.402;5.322;2022-08-04T15:23:07;25.50;99.90
11818;DHT22;5966;52.402;5.322;2022-08-04T15:25:46;25.30;99.90
11818;DHT22;5966;52.402;5.322;2022-08-04T15:28:18;25.00;99.90
11818;DHT22;5966;52.402;5.322;2022-08-04T15:30:51;24.90;99.90
11818;DHT22;5966;52.402;5.322;2022-08-04T15:33:23;24.90;99.90
11818;DHT22;5966;52.402;5.322;2022-08-04T15:36:14;25.00;99.90
11818;DHT22;5966;52.402;5.322;2022-08-04T15:39:02;24.90;99.90
11818;DHT22;5966;52.402;5.322;2022-08-04T15:41:43;24.80;99.90
11818;DHT22;5966;52.402;5.322;2022-08-04T15:44:45;24.80;99.90
11818;DHT22;5966;52.402;5.322;2022-08-04T15:47:19;24.90;99.90
11818;DHT22;5966;52.402;5.322;2022-08-04T15:50:02;25.10;99.90
11818;DHT22;5966;52.402;5.322;2022-08-04T15:53:02;25.20;99.90
11818;DHT22;5966;52.402;5.322;2022-08-04T15:55:39;25.20;99.90
11818;DHT22;5966;52.402;5.322;2022-08-04T15:58:12;25.10;99.90
11818;DHT22;5966;52.402;5.322;2022-08-04T16:01:14;25.00;99.90
11818;DHT22;5966;52.402;5.322;2022-08-04T16:03:48;24.90;99.90
11818;DHT22;5966;52.402;5.322;2022-08-04T16:06:42;24.90;99.90
11818;DHT22;5966;52.402;5.322;2022-08-04T16:11:48;24.90;99.90
11818;DHT22;5966;52.402;5.322;2022-08-04T16:14:28;24.90;99.90
11818;DHT22;5966;52.402;5.322;2022-08-04T16:17:15;24.90;99.90
11818;DHT22;5966;52.402;5.322;2022-08-04T16:20:06;24.90;99.90
11818;DHT22;5966;52.402;5.322;2022-08-04T16:22:37;24.90;99.90
11818;DHT22;5966;52.402;5.322;2022-08-04T16:25:07;24.80;99.90
11818;DHT22;5966;52.402;5.322;2022-08-04T16:27:42;24.80;99.90
11818;DHT22;5966;52.402;5.322;2022-08-04T16:30:12;24.80;99.90
11818;DHT22;5966;52.402;5.322;2022-08-04T16:32:43;24.80;99.90
11818;DHT22;5966;52.402;5.322;2022-08-04T16:35:20;24.80;99.90
11818;DHT22;5966;52.402;5.322;2022-08-04T16:38:12;24.70;99.90
11818;DHT22;5966;52.402;5.322;2022-08-04T16:40:42;24.60;99.90
11818;DHT22;5966;52.402;5.322;2022-08-04T16:43:15;24.50;99.90
11818;DHT22;5966;52.402;5.322;2022-08-04T16:45:50;24.50;99.90
11818;DHT22;5966;52.402;5.322;2022-08-04T16:48:23;24.50;99.90
11818;DHT22;5966;52.402;5.322;2022-08-04T16:50:58;24.40;99.90
11818;DHT22;5966;52.402;5.322;2022-08-04T16:53:35;24.40;99.90
11818;DHT22;5966;52.402;5.322;2022-08-04T16:56:30;24.30;99.90
11818;DHT22;5966;52.402;5.322;2022-08-04T16:59:06;24.30;99.90
11818;DHT22;5966;52.402;5.322;2022-08-04T17:01:36;24.20;99.90
11818;DHT22;5966;52.402;5.322;2022-08-04T17:04:05;24.10;99.90
11818;DHT22;5966;52.402;5.322;2022-08-04T17:06:40;24.00;99.90
11818;DHT22;5966;52.402;5.322;2022-08-04T17:09:14;23.90;99.90
11818;DHT22;5966;52.402;5.322;2022-08-04T17:11:47;23.80;99.90
11818;DHT22;5966;52.402;5.322;2022-08-04T17:14:23;23.90;99.90
11818;DHT22;5966;52.402;5.322;2022-08-04T17:16:57;23.80;99.90
11818;DHT22;5966;52.402;5.322;2022-08-04T17:19:26;23.90;99.90
11818;DHT22;5966;52.402;5.322;2022-08-04T17:22:01;23.80;99.90
11818;DHT22;5966;52.402;5.322;2022-08-04T17:24:32;23.80;99.90
11818;DHT22;5966;52.402;5.322;2022-08-04T17:27:03;23.80;99.90
11818;DHT22;5966;52.402;5.322;2022-08-04T17:29:56;23.70;99.90
11818;DHT22;5966;52.402;5.322;2022-08-04T17:32:24;23.60;99.90
11818;DHT22;5966;52.402;5.322;2022-08-04T17:34:54;23.50;99.90
11818;DHT22;5966;52.402;5.322;2022-08-04T17:37:23;23.40;99.90
11818;DHT22;5966;52.402;5.322;2022-08-04T17:40:09;23.40;99.90
11818;DHT22;5966;52.402;5.322;2022-08-04T17:42:38;23.40;99.90
11818;DHT22;5966;52.402;5.322;2022-08-04T17:45:10;23.40;99.90
11818;DHT22;5966;52.402;5.322;2022-08-04T17:47:59;23.40;99.90
11818;DHT22;5966;52.402;5.322;2022-08-04T17:50:31;23.40;99.90
11818;DHT22;5966;52.402;5.322;2022-08-04T17:53:03;23.40;99.90
11818;DHT22;5966;52.402;5.322;2022-08-04T17:55:46;23.40;99.90
11818;DHT22;5966;52.402;5.322;2022-08-04T17:58:24;23.30;99.90
11818;DHT22;5966;52.402;5.322;2022-08-04T18:01:00;23.20;99.90
11818;DHT22;5966;52.402;5.322;2022-08-04T18:03:49;23.20;99.90
11818;DHT22;5966;52.402;5.322;2022-08-04T18:06:19;23.10;99.90
11818;DHT22;5966;52.402;5.322;2022-08-04T18:08:51;23.00;99.90
11818;DHT22;5966;52.402;5.322;2022-08-04T18:11:23;23.00;99.90
11818;DHT22;5966;52.402;5.322;2022-08-04T18:13:55;23.00;99.90